Pagina principale
METAR-TAF:

METAR-TAF

Aeroporti :

Aeroporto di Torino-Caselle

Torino, Italia

latitudine: 45-13N, longitudine: 007-39E, altezza: 301 m

Osservazione

Il bollettino è stato emesso 24 minuti fa, alle 02:20 UTC
Vento 7 kt da ovest/nord-ovest
Temperature 5°C
Umidità 87%
Pressione 1019 hPa
Visibilità: 8000 m

METAR: LIMF 240220Z 29007KT 8000 NSC 05/03 Q1019

Ora: 03:44 (02:44 UTC)

Previsione

Il bollettino è stato emesso 3 ore e 44 minuti fa, alle 23:00 UTC
Previsione valida dal 24 alle 00 UTC al 24 alle 24 UTC
Vento 5 kt da ovest/nord-ovest
Visibilità: 6000 m
Probabilità 30% :
Temporaneamente
dal 24 alle 00 UTC al 24 alle 06 UTC
Visibilità: 1200 m
banchi di nebbia

TAF: LIMF 232300Z 2400/2424 30005KT 6000 NSC PROB30 TEMPO 2400/2406 1200 BCFG

Osservazioni e previsioni meteorologiche di più di 4000 aeroporti (messaggi METAR e TAF).

Le stazioni disponibili sono rappresentate dai dischi gialli e rossi sulla carta.

Puntare il mouse per vedere il nome della stazione.

Clicca sopra per visualizzare le osservazioni e previsioni meteorologiche.

Per cambiare la mappa : fare clic sui pulsanti verdi con una croce nera per ingrandire, il pulsante verde con un trattino per diminuire, o sulla freccia verde per le mappe adiacenti.


METAR-TAF: